Heidlersburg, Pennsylvania
Current Conditions -  °F | °C
As of 4:35 PM on Friday 24 Oct 2014 (Local Time) from KDMW Reporting Station
Clear Clear  
Wind Chill: 64°   Ceiling: Unl
Heat Index: 64°   Visibility: 10mi
Dew Point: 28°   Wind: 14mph
Humidity: 26%   Direction: 280°W
Pressure: 29.89"   Gusts: 18mph
Location:  39.8288°N, 77.2253°W
Report Text: KDMW 242035Z AUTO 28012G16KT 10SM CLR 18/M02 A2989 RMK AO2
Loading
Personal Weather Stations






























Interactive Weather Map
Tropical Storm Tracking
New forecast layout! Learn more

10-Day Weather Forecast

Advertisements
Track Severe Weather on mobile